Time;durP1;ratioP1;P1;durP2;ratioP2;P2;SDS_P1;SDS_P2;PMS_P1;PMS_P2;Temp;Humidity;BMP_temperature;BMP_pressure;BME280_temperature;BME280_humidity;BME280_pressure;Samples;Min_cycle;Max_cycle;Signal;HPM_P1;HPM_P2
2023/06/15 00:00:42;;;;;;;;;;;;;;;14.29;67.29;100794.34;4954883;29;20345;-76
2023/06/15 00:03:45;;;;;;;;;;;;;;;14.17;67.34;100791.56;4954864;29;19929;-76
2023/06/15 00:06:48;;;;;;;;;;;;;;;14.16;67.24;100784.59;4954772;29;19981;-76
2023/06/15 00:09:51;;;;;;;;;;;;;;;14.24;66.04;100785.91;4954799;29;19968;-76
2023/06/15 00:12:54;;;;;;;;;;;;;;;14.10;66.92;100785.00;4954703;29;19945;-76
2023/06/15 00:15:57;;;;;;;;;;;;;;;13.98;67.49;100785.78;4954589;28;19977;-76
2023/06/15 00:19:01;;;;;;;;;;;;;;;13.96;67.55;100785.84;4955219;28;19977;-77
2023/06/15 00:22:04;;;;;;;;;;;;;;;13.99;67.47;100790.06;4958783;29;19965;-76
2023/06/15 00:25:08;;;;;;;;;;;;;;;14.17;67.03;100788.94;4958659;29;20057;-76
2023/06/15 00:28:11;;;;;;;;;;;;;;;13.93;68.03;100788.66;4958375;29;20297;-76
2023/06/15 00:31:14;;;;;;;;;;;;;;;13.77;68.08;100794.97;4946484;29;19924;-76
2023/06/15 00:34:18;;;;;;;;;;;;;;;13.72;68.38;100796.09;4946448;29;19925;-76
2023/06/15 00:37:20;;;;;;;;;;;;;;;13.75;68.58;100795.03;4958487;29;19929;-76
2023/06/15 00:40:24;;;;;;;;;;;;;;;13.88;67.97;100792.50;4958282;29;19925;-77
2023/06/15 00:43:28;;;;;;;;;;;;;;;13.62;68.99;100797.56;4946242;29;19925;-76
2023/06/15 00:46:31;;;;;;;;;;;;;;;13.63;69.44;100796.66;4958164;29;19925;-76
2023/06/15 00:49:36;;;;;;;;;;;;;;;13.60;69.45;100804.72;4946500;29;20338;-76
2023/06/15 00:52:39;;;;;;;;;;;;;;;13.65;69.22;100809.69;4958043;29;20466;-76
2023/06/15 00:55:43;;;;;;;;;;;;;;;13.46;69.38;100809.94;4957941;29;20005;-76
2023/06/15 00:58:50;;;;;;;;;;;;;;;13.42;69.58;100808.44;4957171;29;19930;-76
2023/06/15 01:01:54;;;;;;;;;;;;;;;13.41;69.83;100812.88;4957915;29;19926;-76
2023/06/15 01:04:57;;;;;;;;;;;;;;;13.30;69.78;100815.28;4945936;29;19926;-76
2023/06/15 01:08:04;;;;;;;;;;;;;;;13.25;70.08;100812.94;4945830;29;20262;-76
2023/06/15 01:11:08;;;;;;;;;;;;;;;13.20;70.45;100809.69;4957949;29;19941;-76
2023/06/15 01:14:10;;;;;;;;;;;;;;;13.23;70.45;100814.75;4957398;28;19933;-76
2023/06/15 01:17:15;;;;;;;;;;;;;;;13.24;70.53;100815.59;4957378;29;19928;-76
2023/06/15 01:20:24;;;;;;;;;;;;;;;13.11;70.60;100814.63;4957855;29;19965;-76
2023/06/15 01:23:49;;;;;;;;;;;;;;;13.11;70.83;100820.72;4957389;29;19926;-76
2023/06/15 01:26:53;;;;;;;;;;;;;;;13.02;70.94;100826.53;4957607;29;20064;-76
2023/06/15 01:29:57;;;;;;;;;;;;;;;13.09;71.24;100819.97;4957389;29;19925;-77
2023/06/15 01:33:00;;;;;;;;;;;;;;;13.00;71.53;100823.13;4957160;29;19940;-76
2023/06/15 01:36:04;;;;;;;;;;;;;;;12.94;71.96;100818.22;4957333;29;19926;-77
2023/06/15 01:39:07;;;;;;;;;;;;;;;12.85;72.08;100819.59;4945189;29;19930;-76
2023/06/15 01:42:11;;;;;;;;;;;;;;;12.95;71.96;100830.41;4945284;29;20437;-77
2023/06/15 01:45:15;;;;;;;;;;;;;;;13.02;71.48;100826.53;4945076;29;19925;-76
2023/06/15 01:48:19;;;;;;;;;;;;;;;13.24;70.49;100826.09;4945067;29;19926;-76
2023/06/15 01:51:23;;;;;;;;;;;;;;;12.97;71.46;100828.56;4945403;29;19940;-77
2023/06/15 01:54:25;;;;;;;;;;;;;;;12.99;71.56;100826.69;4945133;29;19933;-77
2023/06/15 01:57:33;;;;;;;;;;;;;;;12.78;72.06;100826.97;4956715;29;19950;-76
2023/06/15 02:00:36;;;;;;;;;;;;;;;12.76;72.19;100825.38;4956835;29;19973;-77
2023/06/15 02:03:39;;;;;;;;;;;;;;;12.60;72.97;100825.38;4944767;29;19925;-77
2023/06/15 02:06:47;;;;;;;;;;;;;;;12.70;72.42;100826.56;4944661;29;20357;-76
2023/06/15 02:09:51;;;;;;;;;;;;;;;12.53;73.09;100830.13;4956640;29;19925;-76
2023/06/15 02:12:56;;;;;;;;;;;;;;;12.58;73.01;100827.25;4956611;29;20409;-77
2023/06/15 02:15:59;;;;;;;;;;;;;;;12.70;72.71;100831.81;4944495;29;20350;-77
2023/06/15 02:19:03;;;;;;;;;;;;;;;12.58;72.79;100827.25;4944436;29;19930;-77
2023/06/15 02:22:07;;;;;;;;;;;;;;;12.38;73.86;100830.13;4944704;29;20391;-76
2023/06/15 02:25:11;;;;;;;;;;;;;;;12.42;74.00;100824.66;4956198;29;19924;-76
2023/06/15 02:28:16;;;;;;;;;;;;;;;12.50;73.75;100829.44;4956260;29;19926;-76
2023/06/15 02:31:19;;;;;;;;;;;;;;;12.36;73.73;100832.00;4944691;29;19941;-77
2023/06/15 02:34:24;;;;;;;;;;;;;;;12.37;73.89;100836.31;4944218;29;19925;-76
2023/06/15 02:37:30;;;;;;;;;;;;;;;12.18;74.81;100836.47;4944037;29;20029;-76
2023/06/15 02:40:41;;;;;;;;;;;;;;;12.21;74.46;100834.50;4944003;29;19976;-76
2023/06/15 02:43:44;;;;;;;;;;;;;;;12.17;74.29;100840.03;4955260;28;19994;-76
2023/06/15 02:46:48;;;;;;;;;;;;;;;12.09;74.49;100841.28;4943882;29;19924;-76
2023/06/15 02:49:52;;;;;;;;;;;;;;;12.17;74.37;100847.88;4943920;29;19940;-77
2023/06/15 02:52:55;;;;;;;;;;;;;;;12.24;74.21;100839.59;4943801;29;19933;-77
2023/06/15 02:56:01;;;;;;;;;;;;;;;12.27;73.95;100839.44;4943911;29;20453;-76
2023/06/15 02:59:08;;;;;;;;;;;;;;;12.15;74.15;100837.47;4955578;29;20127;-76
2023/06/15 03:02:35;;;;;;;;;;;;;;;12.14;74.42;100843.66;4954531;29;19929;-76
2023/06/15 03:05:39;;;;;;;;;;;;;;;12.12;74.33;100839.41;4943453;29;19926;-76
2023/06/15 03:08:44;;;;;;;;;;;;;;;12.08;74.32;100843.97;4943577;29;19926;-76
2023/06/15 03:11:55;;;;;;;;;;;;;;;12.17;74.20;100847.88;4943581;29;19933;-76
2023/06/15 03:15:04;;;;;;;;;;;;;;;12.18;73.49;100847.78;4943178;29;19930;-76
2023/06/15 03:18:11;;;;;;;;;;;;;;;12.15;74.22;100847.94;4943316;29;19982;-76
2023/06/15 03:21:15;;;;;;;;;;;;;;;12.26;73.55;100850.84;4943237;29;20021;-76
2023/06/15 03:24:18;;;;;;;;;;;;;;;11.98;74.41;100848.84;4943300;29;20057;-76
2023/06/15 03:27:23;;;;;;;;;;;;;;;11.88;75.15;100852.06;4943243;29;19969;-76
2023/06/15 03:30:28;;;;;;;;;;;;;;;11.92;75.18;100858.81;4943223;29;20514;-76
2023/06/15 03:33:32;;;;;;;;;;;;;;;11.80;75.55;100863.72;4943055;29;19973;-74
2023/06/15 03:36:36;;;;;;;;;;;;;;;11.84;75.63;100857.44;4943066;29;20357;-72
2023/06/15 03:39:39;;;;;;;;;;;;;;;11.77;75.85;100865.66;4955289;29;19946;-75
2023/06/15 03:42:45;;;;;;;;;;;;;;;11.79;75.76;100867.28;4943092;29;20325;-75
2023/06/15 03:45:48;;;;;;;;;;;;;;;11.84;75.81;100867.06;4943040;29;20362;-74
2023/06/15 03:48:52;;;;;;;;;;;;;;;11.91;75.28;100878.09;4942840;29;19989;-75
2023/06/15 03:51:55;;;;;;;;;;;;;;;11.77;75.69;100878.75;4942881;29;19930;-74
2023/06/15 03:54:59;;;;;;;;;;;;;;;11.75;75.77;100872.78;4942595;29;20025;-76
2023/06/15 03:58:03;;;;;;;;;;;;;;;11.74;75.75;100879.78;4942821;29;19929;-74
2023/06/15 04:01:07;;;;;;;;;;;;;;;11.76;76.00;100877.91;4942923;29;19924;-76
2023/06/15 04:04:14;;;;;;;;;;;;;;;11.95;75.20;100871.75;4954689;29;19973;-75
2023/06/15 04:07:19;;;;;;;;;;;;;;;11.94;75.10;100880.56;4942914;29;19965;-78
2023/06/15 04:10:22;;;;;;;;;;;;;;;11.75;76.25;100884.09;4954557;29;20397;-76
2023/06/15 04:13:26;;;;;;;;;;;;;;;11.91;75.78;100878.09;4954534;29;19965;-74
2023/06/15 04:16:29;;;;;;;;;;;;;;;11.84;76.23;100881.03;4942767;29;19969;-78
2023/06/15 04:19:32;;;;;;;;;;;;;;;11.91;76.01;100885.97;4942783;29;19938;-74
2023/06/15 04:22:36;;;;;;;;;;;;;;;11.79;76.46;100890.84;4942794;29;19941;-74
2023/06/15 04:25:43;;;;;;;;;;;;;;;11.76;76.94;100895.41;4942640;29;19973;-75
2023/06/15 04:28:49;;;;;;;;;;;;;;;11.90;75.92;100884.25;4953879;28;20950;-74
2023/06/15 04:31:55;;;;;;;;;;;;;;;11.84;76.53;100894.13;4942510;29;19926;-74
2023/06/15 04:35:01;;;;;;;;;;;;;;;11.81;77.38;100886.41;4942669;29;19933;-74
2023/06/15 04:38:04;;;;;;;;;;;;;;;11.98;76.37;100895.19;4942417;29;20330;-75
2023/06/15 04:41:08;;;;;;;;;;;;;;;12.20;74.03;100892.28;4942746;29;19969;-69
2023/06/15 04:44:11;;;;;;;;;;;;;;;12.27;74.87;100897.09;4942390;29;19926;-70
2023/06/15 04:47:16;;;;;;;;;;;;;;;12.27;74.56;100897.09;4940101;29;19930;-68
2023/06/15 04:50:21;;;;;;;;;;;;;;;12.42;73.55;100890.19;4940798;29;20004;-69
2023/06/15 04:53:25;;;;;;;;;;;;;;;12.39;73.38;100898.22;4942566;29;20042;-70
2023/06/15 04:56:28;;;;;;;;;;;;;;;12.55;73.28;100895.63;4942608;29;19926;-72
2023/06/15 04:59:31;;;;;;;;;;;;;;;12.53;73.47;100894.84;4954111;29;19965;-70
2023/06/15 05:02:35;;;;;;;;;;;;;;;12.58;73.51;100895.47;4942265;29;20429;-71
2023/06/15 05:05:38;;;;;;;;;;;;;;;12.68;72.88;100896.66;4942082;28;19970;-71
2023/06/15 05:08:41;;;;;;;;;;;;;;;12.70;72.90;100900.03;4945691;29;19929;-71
2023/06/15 05:11:45;;;;;;;;;;;;;;;12.72;72.83;100898.16;4945569;29;20022;-70
2023/06/15 05:14:50;;;;;;;;;;;;;;;12.78;72.56;100897.81;4957138;28;20359;-71
2023/06/15 05:17:53;;;;;;;;;;;;;;;12.94;72.42;100894.34;4945432;29;19977;-70
2023/06/15 05:20:57;;;;;;;;;;;;;;;13.10;71.80;100892.53;4945651;29;20286;-69
2023/06/15 05:24:02;;;;;;;;;;;;;;;13.26;71.97;100893.38;4956511;29;19965;-69
2023/06/15 05:27:06;;;;;;;;;;;;;;;13.30;71.64;100898.47;4957302;29;20293;-69
2023/06/15 05:30:11;;;;;;;;;;;;;;;13.26;72.58;100898.63;4945354;29;20389;-69
2023/06/15 05:33:17;;;;;;;;;;;;;;;13.38;72.56;100901.50;4957063;29;19925;-69
2023/06/15 05:36:21;;;;;;;;;;;;;;;13.53;72.08;100895.38;4945044;29;19965;-67
2023/06/15 05:39:25;;;;;;;;;;;;;;;13.71;71.05;100898.66;4945172;29;19930;-70
2023/06/15 05:42:29;;;;;;;;;;;;;;;13.84;70.50;100898.78;4945037;29;19925;-70
2023/06/15 05:45:32;;;;;;;;;;;;;;;14.00;70.55;100899.53;4945020;29;20452;-69
2023/06/15 05:48:39;;;;;;;;;;;;;;;14.05;70.72;100904.53;4944828;29;19926;-70
2023/06/15 05:51:43;;;;;;;;;;;;;;;14.18;70.13;100898.44;4956763;29;19968;-69
2023/06/15 05:54:46;;;;;;;;;;;;;;;14.32;70.25;100899.38;4944952;29;19969;-70
2023/06/15 05:57:50;;;;;;;;;;;;;;;14.38;70.77;100907.72;4955881;29;19929;-71
2023/06/15 06:00:53;;;;;;;;;;;;;;;14.49;71.30;100907.06;4956762;29;19925;-72
2023/06/15 06:03:56;;;;;;;;;;;;;;;14.61;70.79;100900.19;4944700;29;20385;-70
2023/06/15 06:07:05;;;;;;;;;;;;;;;14.73;70.00;100898.59;4944567;29;19974;-70
2023/06/15 06:10:08;;;;;;;;;;;;;;;14.84;69.48;100894.34;4944511;29;20047;-67
2023/06/15 06:13:11;;;;;;;;;;;;;;;15.02;68.89;100896.72;4944780;29;19933;-68
2023/06/15 06:16:15;;;;;;;;;;;;;;;15.16;68.98;100896.69;4956179;28;20025;-73
2023/06/15 06:19:19;;;;;;;;;;;;;;;15.25;69.21;100901.34;4944607;29;20440;-74
2023/06/15 06:22:25;;;;;;;;;;;;;;;15.31;68.75;100900.06;4955523;29;20419;-73
2023/06/15 06:25:28;;;;;;;;;;;;;;;15.44;68.36;100897.47;4956394;29;19925;-74
2023/06/15 06:28:31;;;;;;;;;;;;;;;15.57;67.63;100906.25;4944278;29;19925;-73
2023/06/15 06:31:34;;;;;;;;;;;;;;;15.69;68.04;100904.59;4956156;29;19929;-74
2023/06/15 06:34:37;;;;;;;;;;;;;;;15.82;67.71;100905.47;4956143;29;20405;-74
2023/06/15 06:37:41;;;;;;;;;;;;;;;15.92;67.89;100905.66;4956170;29;19977;-74
2023/06/15 06:40:44;;;;;;;;;;;;;;;16.02;67.83;100907.59;4944095;29;20388;-74
2023/06/15 06:43:47;;;;;;;;;;;;;;;16.13;66.36;100906.00;4955962;29;20094;-74
2023/06/15 06:46:50;;;;;;;;;;;;;;;16.23;65.71;100904.41;4955863;29;19969;-74
2023/06/15 06:49:54;;;;;;;;;;;;;;;16.34;65.24;100906.31;4955927;29;20420;-74
2023/06/15 06:52:57;;;;;;;;;;;;;;;16.47;64.57;100907.13;4955840;29;19925;-74
2023/06/15 06:56:00;;;;;;;;;;;;;;;16.58;64.15;100901.06;4955902;29;20053;-74
2023/06/15 06:59:03;;;;;;;;;;;;;;;16.63;62.66;100910.34;4955639;29;20285;-74
2023/06/15 07:02:07;;;;;;;;;;;;;;;16.73;62.53;100902.63;4955890;29;19973;-74
2023/06/15 07:05:09;;;;;;;;;;;;;;;16.84;62.20;100899.22;4955632;29;20020;-74
2023/06/15 07:08:12;;;;;;;;;;;;;;;16.90;61.65;100907.53;4955596;29;19988;-74
2023/06/15 07:11:15;;;;;;;;;;;;;;;16.98;61.85;100901.72;4955582;29;19928;-74
2023/06/15 07:14:23;;;;;;;;;;;;;;;17.07;61.50;100901.03;4955316;28;20025;-74
2023/06/15 07:17:26;;;;;;;;;;;;;;;17.18;60.59;100908.16;4955530;29;19993;-74
2023/06/15 07:20:31;;;;;;;;;;;;;;;17.25;60.43;100897.97;4955667;29;19925;-74
2023/06/15 07:23:34;;;;;;;;;;;;;;;17.33;60.32;100901.75;4955425;29;19925;-74
2023/06/15 07:26:40;;;;;;;;;;;;;;;17.36;59.97;100901.53;4955239;29;19942;-74
2023/06/15 07:29:43;;;;;;;;;;;;;;;17.44;59.83;100891.19;4954696;28;19925;-74
2023/06/15 07:32:45;;;;;;;;;;;;;;;17.53;59.55;100899.41;4955052;29;20021;-74
2023/06/15 07:35:48;;;;;;;;;;;;;;;17.67;59.54;100888.63;4955333;29;19925;-74
2023/06/15 07:38:53;;;;;;;;;;;;;;;17.80;58.96;100892.03;4955209;29;19945;-74
2023/06/15 07:41:57;;;;;;;;;;;;;;;18.01;58.10;100894.00;4955132;29;19925;-74
2023/06/15 07:45:00;;;;;;;;;;;;;;;18.09;57.95;100895.09;4955335;29;19925;-74
2023/06/15 07:48:03;;;;;;;;;;;;;;;18.11;57.83;100887.84;4955072;29;19925;-74
2023/06/15 07:51:07;;;;;;;;;;;;;;;18.20;57.69;100886.31;4955068;29;19925;-74
2023/06/15 07:54:10;;;;;;;;;;;;;;;18.22;56.34;100879.09;4954997;29;19969;-74
2023/06/15 07:57:12;;;;;;;;;;;;;;;18.42;57.13;100890.75;4954887;29;20234;-74
2023/06/15 08:00:16;;;;;;;;;;;;;;;18.57;55.73;100889.53;4954920;29;20012;-74
2023/06/15 08:03:19;;;;;;;;;;;;;;;18.55;56.11;100882.66;4954712;29;19973;-74
2023/06/15 08:06:22;;;;;;;;;;;;;;;18.70;56.69;100878.78;4954954;29;20013;-74
2023/06/15 08:09:25;;;;;;;;;;;;;;;18.88;55.34;100875.63;4954868;29;20018;-74
2023/06/15 08:12:32;;;;;;;;;;;;;;;18.97;55.15;100881.03;4954690;29;19946;-74
2023/06/15 08:15:35;;;;;;;;;;;;;;;19.03;54.81;100872.56;4954646;28;19933;-74
2023/06/15 08:18:47;;;;;;;;;;;;;;;19.16;53.85;100872.41;4954616;29;19930;-74
2023/06/15 08:21:50;;;;;;;;;;;;;;;19.24;52.69;100872.63;4954790;29;20298;-74
2023/06/15 08:24:54;;;;;;;;;;;;;;;19.25;53.31;100874.28;4954711;29;20000;-74
2023/06/15 08:27:56;;;;;;;;;;;;;;;19.38;53.48;100866.16;4954665;29;19981;-74
2023/06/15 08:30:59;;;;;;;;;;;;;;;19.70;49.26;100860.81;4954638;29;20017;-74
2023/06/15 08:34:02;;;;;;;;;;;;;;;19.88;49.74;100854.91;4954517;29;19989;-74
2023/06/15 08:37:05;;;;;;;;;;;;;;;19.96;50.14;100853.25;4954742;29;19930;-74
2023/06/15 08:40:08;;;;;;;;;;;;;;;20.01;49.64;100847.56;4954631;28;19973;-75
2023/06/15 08:43:14;;;;;;;;;;;;;;;20.03;48.99;100850.91;4958664;29;19925;-74
2023/06/15 08:46:17;;;;;;;;;;;;;;;20.07;48.69;100849.69;4958248;29;19973;-74
2023/06/15 08:49:20;;;;;;;;;;;;;;;20.08;49.07;100851.34;4958184;29;20042;-74
2023/06/15 08:52:23;;;;;;;;;;;;;;;20.12;48.96;100852.75;4958366;29;19925;-74
2023/06/15 08:55:27;;;;;;;;;;;;;;;20.45;47.75;100848.09;4958609;29;20009;-74
2023/06/15 08:58:30;;;;;;;;;;;;;;;20.40;47.48;100855.66;4958060;29;19968;-74
2023/06/15 09:01:40;;;;;;;;;;;;;;;20.49;46.72;100846.88;4957957;29;19925;-74
2023/06/15 09:04:43;;;;;;;;;;;;;;;20.80;44.93;100849.44;4946150;29;19929;-74
2023/06/15 09:07:46;;;;;;;;;;;;;;;20.82;44.99;100853.66;4957950;29;19925;-74
2023/06/15 09:10:48;;;;;;;;;;;;;;;20.77;44.88;100849.72;4957830;29;19926;-74
2023/06/15 09:13:53;;;;;;;;;;;;;;;20.84;45.54;100849.06;4957869;29;19974;-74
2023/06/15 09:16:56;;;;;;;;;;;;;;;20.84;45.09;100848.22;4938564;29;19930;-74
2023/06/15 09:19:59;;;;;;;;;;;;;;;20.89;45.28;100841.47;4938488;29;19978;-74
2023/06/15 09:23:05;;;;;;;;;;;;;;;21.50;44.33;100843.00;4938466;29;19941;-74
2023/06/15 09:26:09;;;;;;;;;;;;;;;21.26;43.62;100847.94;4938379;29;20357;-74
2023/06/15 09:29:12;;;;;;;;;;;;;;;21.29;43.80;100843.16;4938355;29;19928;-74
2023/06/15 09:32:17;;;;;;;;;;;;;;;21.26;41.92;100840.78;4938444;29;19966;-74
2023/06/15 09:35:24;;;;;;;;;;;;;;;21.40;41.60;100828.88;4938340;29;20018;-74
2023/06/15 09:38:28;;;;;;;;;;;;;;;21.52;41.04;100829.56;4933358;29;19941;-74
2023/06/15 09:41:33;;;;;;;;;;;;;;;21.70;41.34;100830.50;4938119;29;19930;-74
2023/06/15 09:44:40;;;;;;;;;;;;;;;21.72;40.92;100835.69;4938164;29;19926;-75
2023/06/15 09:47:43;;;;;;;;;;;;;;;21.69;41.80;100831.47;4937885;29;20032;-74
2023/06/15 09:50:51;;;;;;;;;;;;;;;21.90;40.68;100819.78;4938016;29;20395;-74
2023/06/15 09:53:54;;;;;;;;;;;;;;;22.00;41.06;100821.41;4937805;29;20010;-75
2023/06/15 09:57:01;;;;;;;;;;;;;;;22.03;41.36;100821.13;4937916;29;19926;-75
2023/06/15 10:00:07;;;;;;;;;;;;;;;22.21;40.37;100823.06;4938063;29;19930;-74
2023/06/15 10:03:18;;;;;;;;;;;;;;;22.29;39.77;100820.47;4937808;29;20363;-74
2023/06/15 10:06:22;;;;;;;;;;;;;;;22.23;39.12;100815.72;4937760;29;19925;-74
2023/06/15 10:09:28;;;;;;;;;;;;;;;22.18;38.59;100823.34;4937614;29;19929;-74
2023/06/15 10:12:37;;;;;;;;;;;;;;;22.12;38.74;100803.44;4937880;29;19953;-74
2023/06/15 10:15:45;;;;;;;;;;;;;;;22.22;39.53;100817.56;4949975;29;19928;-74
2023/06/15 10:18:53;;;;;;;;;;;;;;;22.44;37.28;100812.81;4956394;29;19930;-74
2023/06/15 10:21:56;;;;;;;;;;;;;;;22.59;35.63;100813.13;4956816;29;19929;-74
2023/06/15 10:25:00;;;;;;;;;;;;;;;22.49;35.74;100822.03;4956536;29;19926;-74
2023/06/15 10:28:09;;;;;;;;;;;;;;;22.50;35.76;100818.38;4956498;29;19964;-74
2023/06/15 10:31:16;;;;;;;;;;;;;;;22.54;35.75;100807.41;4956419;29;19940;-74
2023/06/15 10:34:33;;;;;;;;;;;;;;;22.77;36.12;100815.81;4956534;29;20394;-74
2023/06/15 10:38:06;;;;;;;;;;;;;;;22.83;35.33;100808.03;4956085;29;20399;-74
2023/06/15 10:41:10;;;;;;;;;;;;;;;23.00;36.23;100809.03;4956148;29;20390;-74
2023/06/15 10:44:16;;;;;;;;;;;;;;;23.06;34.98;100800.41;4956066;29;19977;-74
2023/06/15 10:47:22;;;;;;;;;;;;;;;23.18;34.99;100806.34;4955836;29;19925;-74
2023/06/15 10:50:26;;;;;;;;;;;;;;;23.16;34.83;100792.31;4944115;29;19985;-74
2023/06/15 10:53:41;;;;;;;;;;;;;;;23.20;35.22;100797.22;4956347;29;19929;-74
2023/06/15 10:56:53;;;;;;;;;;;;;;;23.23;34.27;100793.41;4955798;29;19951;-73
2023/06/15 10:59:57;;;;;;;;;;;;;;;23.19;33.65;100789.34;4954985;29;19930;-74
2023/06/15 11:03:01;;;;;;;;;;;;;;;23.12;33.96;100796.31;4955548;28;19951;-74
2023/06/15 11:06:07;;;;;;;;;;;;;;;23.25;33.38;100790.56;4954947;28;21262;-73
2023/06/15 11:09:13;;;;;;;;;;;;;;;23.38;33.14;100791.81;4955551;29;19945;-74
2023/06/15 11:12:34;;;;;;;;;;;;;;;23.63;33.56;100789.28;4955680;29;19965;-72
2023/06/15 11:15:37;;;;;;;;;;;;;;;23.56;33.54;100783.75;4955287;29;19929;-74
2023/06/15 11:19:20;;;;;;;;;;;;;;;23.48;31.82;100786.38;4955444;29;19930;-73
2023/06/15 11:22:27;;;;;;;;;;;;;;;23.39;32.24;100782.84;4915106;29;19994;-74
2023/06/15 11:25:30;;;;;;;;;;;;;;;23.42;32.30;100785.19;4915151;29;19926;-75
2023/06/15 11:28:34;;;;;;;;;;;;;;;23.72;32.35;100788.38;4955265;29;19941;-71
2023/06/15 11:31:43;;;;;;;;;;;;;;;23.74;31.98;100770.38;4955237;29;19925;-73
2023/06/15 11:34:46;;;;;;;;;;;;;;;23.82;32.71;100773.06;4955513;29;19965;-73
2023/06/15 11:37:49;;;;;;;;;;;;;;;23.98;32.46;100774.97;4954953;29;19978;-71
2023/06/15 11:41:02;;;;;;;;;;;;;;;23.71;30.90;100765.34;4955161;29;20290;-71
2023/06/15 11:44:08;;;;;;;;;;;;;;;24.09;30.35;100758.66;4955042;29;19929;-74
2023/06/15 11:47:11;;;;;;;;;;;;;;;24.12;29.71;100750.31;4954994;29;20294;-74
2023/06/15 11:50:15;;;;;;;;;;;;;;;24.23;29.83;100751.84;4955188;29;20053;-74
2023/06/15 11:53:20;;;;;;;;;;;;;;;24.46;29.59;100754.75;4955096;29;19973;-74
2023/06/15 11:56:24;;;;;;;;;;;;;;;24.39;30.16;100752.88;4955237;29;20282;-72
2023/06/15 11:59:27;;;;;;;;;;;;;;;24.40;29.55;100749.19;4954884;29;20054;-71
2023/06/15 12:02:30;;;;;;;;;;;;;;;24.55;29.13;100736.88;4942821;29;19977;-73
2023/06/15 12:05:33;;;;;;;;;;;;;;;24.55;29.14;100736.88;4954381;29;19925;-71
2023/06/15 12:08:37;;;;;;;;;;;;;;;24.55;29.11;100744.91;4954465;29;19926;-71
2023/06/15 12:11:47;;;;;;;;;;;;;;;24.49;28.90;100732.19;4955111;29;20425;-74
2023/06/15 12:14:53;;;;;;;;;;;;;;;24.36;29.26;100732.66;4954811;28;20054;-74
2023/06/15 12:17:58;;;;;;;;;;;;;;;24.40;29.68;100727.81;4946656;29;19930;-74
2023/06/15 12:21:03;;;;;;;;;;;;;;;24.84;29.32;100731.03;4958750;29;19946;-75
2023/06/15 12:24:15;;;;;;;;;;;;;;;24.89;29.09;100727.84;4958526;29;19925;-76
2023/06/15 12:27:19;;;;;;;;;;;;;;;24.94;28.77;100725.50;4946643;29;19984;-77
2023/06/15 12:30:24;;;;;;;;;;;;;;;25.04;29.16;100728.84;4958440;29;20294;-73
2023/06/15 12:33:31;;;;;;;;;;;;;;;25.09;27.17;100721.16;4958632;29;19950;-84
2023/06/15 12:36:36;;;;;;;;;;;;;;;25.19;26.75;100713.81;4958233;29;19925;-73
2023/06/15 12:39:42;;;;;;;;;;;;;;;25.33;27.11;100716.78;4958151;29;20297;-73
2023/06/15 12:43:01;;;;;;;;;;;;;;;25.33;26.47;100712.25;4958550;29;19964;-72
2023/06/15 12:46:04;;;;;;;;;;;;;;;25.50;26.41;100710.38;4958016;29;20005;-73
2023/06/15 12:49:08;;;;;;;;;;;;;;;25.68;26.10;100710.94;4958084;29;20026;-72
2023/06/15 12:52:13;;;;;;;;;;;;;;;25.86;26.52;100708.06;4958339;29;19973;-75
2023/06/15 12:55:23;;;;;;;;;;;;;;;25.99;26.07;100704.81;4957971;29;20405;-71
2023/06/15 12:58:26;;;;;;;;;;;;;;;26.19;26.47;100692.59;4957917;29;19929;-72
2023/06/15 13:01:29;;;;;;;;;;;;;;;26.25;25.78;100692.91;4957912;29;20354;-71
2023/06/15 13:04:35;;;;;;;;;;;;;;;26.47;26.30;100691.25;4957873;29;19940;-70
2023/06/15 13:07:38;;;;;;;;;;;;;;;26.76;24.96;100675.25;4957691;29;20389;-70
2023/06/15 13:10:42;;;;;;;;;;;;;;;26.92;25.44;100673.44;4957969;29;19964;-70
2023/06/15 13:13:45;;;;;;;;;;;;;;;27.16;25.85;100669.72;4957598;29;20017;-72
2023/06/15 13:16:49;;;;;;;;;;;;;;;27.36;24.77;100676.16;4957571;29;19954;-72
2023/06/15 13:19:53;;;;;;;;;;;;;;;27.50;23.76;100677.16;4957444;29;19977;-71
2023/06/15 13:22:59;;;;;;;;;;;;;;;27.90;23.97;100673.13;4957476;29;19974;-72
2023/06/15 13:26:02;;;;;;;;;;;;;;;27.87;24.36;100670.81;4957382;28;19924;-72
2023/06/15 13:29:05;;;;;;;;;;;;;;;28.09;23.53;100660.09;4957452;29;20428;-70
2023/06/15 13:32:09;;;;;;;;;;;;;;;27.94;23.55;100662.84;4957514;29;20033;-71
2023/06/15 13:35:13;;;;;;;;;;;;;;;27.97;22.78;100662.47;4957341;29;20302;-71
2023/06/15 13:38:18;;;;;;;;;;;;;;;27.87;23.68;100667.31;4957398;29;20005;-73
2023/06/15 13:41:21;;;;;;;;;;;;;;;28.14;24.82;100663.88;4957367;29;19945;-72
2023/06/15 13:44:24;;;;;;;;;;;;;;;28.67;24.25;100658.16;4957283;29;19989;-72
2023/06/15 13:47:28;;;;;;;;;;;;;;;28.60;24.87;100659.97;4945395;29;19950;-71
2023/06/15 13:50:31;;;;;;;;;;;;;;;28.87;24.22;100664.50;4957160;29;19926;-71
2023/06/15 13:53:36;;;;;;;;;;;;;;;29.11;23.05;100665.13;4956997;29;19965;-71
2023/06/15 13:56:41;;;;;;;;;;;;;;;29.28;22.96;100666.44;4945345;29;19925;-71
2023/06/15 13:59:44;;;;;;;;;;;;;;;28.77;23.95;100653.25;4956739;29;19965;-73
2023/06/15 14:02:48;;;;;;;;;;;;;;;28.94;24.03;100648.41;4956891;29;19968;-72
2023/06/15 14:05:51;;;;;;;;;;;;;;;29.50;22.99;100653.69;4956907;29;19926;-72
2023/06/15 14:08:55;;;;;;;;;;;;;;;29.66;21.53;100647.16;4956944;29;19925;-75
2023/06/15 14:11:59;;;;;;;;;;;;;;;30.35;22.23;100636.13;4956742;29;19977;-71
2023/06/15 14:15:02;;;;;;;;;;;;;;;30.90;20.68;100626.94;4956312;28;19950;-71
2023/06/15 14:18:05;;;;;;;;;;;;;;;30.88;20.48;100634.41;4944766;29;19937;-71
2023/06/15 14:21:08;;;;;;;;;;;;;;;31.52;20.16;100638.19;4956520;29;20386;-71
2023/06/15 14:24:11;;;;;;;;;;;;;;;31.65;19.92;100625.44;4956343;29;20398;-72
2023/06/15 14:27:14;;;;;;;;;;;;;;;31.63;20.24;100632.94;4956464;29;20286;-73
2023/06/15 14:30:18;;;;;;;;;;;;;;;32.56;19.14;100632.31;4956248;29;20294;-72
2023/06/15 14:33:22;;;;;;;;;;;;;;;33.30;18.54;100626.97;4956243;29;20020;-71
2023/06/15 14:36:25;;;;;;;;;;;;;;;34.95;17.81;100615.44;4956501;29;19964;-72
2023/06/15 14:39:28;;;;;;;;;;;;;;;36.87;15.08;100613.94;4955961;28;20394;-72
2023/06/15 14:42:44;;;;;;;;;;;;;;;36.63;15.27;100614.19;4955942;29;20433;-73
2023/06/15 14:45:47;;;;;;;;;;;;;;;38.13;14.32;100613.75;4956181;29;19925;-74
2023/06/15 14:48:50;;;;;;;;;;;;;;;40.66;12.21;100610.41;4955924;29;20441;-72
2023/06/15 14:51:54;;;;;;;;;;;;;;;36.94;15.68;100617.31;4956006;29;20387;-72
2023/06/15 14:55:01;;;;;;;;;;;;;;;38.43;14.67;100617.78;4955303;29;20011;-72
2023/06/15 14:58:05;;;;;;;;;;;;;;;38.56;14.62;100616.50;4955835;29;19929;-72
2023/06/15 15:01:08;;;;;;;;;;;;;;;38.85;13.88;100619.69;4955693;29;20022;-72
2023/06/15 15:04:11;;;;;;;;;;;;;;;35.03;16.92;100618.88;4955993;29;20432;-72
2023/06/15 15:07:14;;;;;;;;;;;;;;;33.82;18.67;100621.91;4954828;29;19925;-72
2023/06/15 15:10:18;;;;;;;;;;;;;;;32.30;19.85;100622.53;4954099;29;20342;-71
2023/06/15 15:13:21;;;;;;;;;;;;;;;30.81;22.01;100624.47;4955190;29;19941;-72
2023/06/15 15:16:25;;;;;;;;;;;;;;;29.62;23.50;100629.75;4955278;28;20342;-72
2023/06/15 15:19:28;;;;;;;;;;;;;;;29.58;24.14;100634.69;4954481;29;19929;-71
2023/06/15 15:22:31;;;;;;;;;;;;;;;28.86;25.38;100630.56;4955487;29;19926;-72
2023/06/15 15:25:35;;;;;;;;;;;;;;;28.31;26.41;100632.19;4951321;29;19925;-71
2023/06/15 15:40:43;;;;;;;4.90;3.05;;;;;;;28.94;24.36;100622.34;5109642;27;20388;-71
2023/06/15 15:43:45;;;;;;;8.75;3.15;;;;;;;29.26;23.84;100617.34;5109567;28;20058;-72
2023/06/15 15:46:49;;;;;;;6.90;2.42;;;;;;;28.86;25.12;100614.41;5109484;28;20521;-71
2023/06/15 15:49:52;;;;;;;7.10;2.67;;;;;;;30.56;22.87;100610.75;5109302;28;20038;-73
2023/06/15 15:52:56;;;;;;;7.32;2.65;;;;;;;30.04;22.76;100612.41;5109862;28;20070;-72
2023/06/15 15:55:59;;;;;;;4.80;2.47;;;;;;;29.22;22.71;100608.00;5089161;28;20062;-73
2023/06/15 15:59:03;;;;;;;4.22;2.45;;;;;;;28.48;23.78;100605.88;5096268;28;20510;-73